Time;durP1;ratioP1;P1;durP2;ratioP2;P2;SDS_P1;SDS_P2;PMS_P1;PMS_P2;Temp;Humidity;BMP_temperature;BMP_pressure;BME280_temperature;BME280_humidity;BME280_pressure;Samples;Min_cycle;Max_cycle;Signal;HPM_P1;HPM_P2
2022/09/24 00:00:21;;;;;;;;;;;;;;;26.67;34.97;100974.34;5016594;28;1902;-42
2022/09/24 00:02:46;;;;;;;;;;;;;;;26.68;34.72;100979.56;5016360;28;1132;-42
2022/09/24 00:05:11;;;;;;;;;;;;;;;26.67;35.13;100977.03;5015953;28;1028;-42
2022/09/24 00:07:37;;;;;;;;;;;;;;;26.68;34.83;100970.63;5016884;28;1186;-42
2022/09/24 00:10:02;;;;;;;;;;;;;;;26.57;35.15;100972.69;5015881;28;1140;-42
2022/09/24 00:12:28;;;;;;;;;;;;;;;26.58;35.00;100971.69;5016077;28;1069;-42
2022/09/24 00:14:53;;;;;;;;;;;;;;;26.51;35.26;100966.13;5016358;28;1112;-42
2022/09/24 00:17:18;;;;;;;;;;;;;;;26.56;35.23;100965.59;5016134;28;853;-41
2022/09/24 00:19:43;;;;;;;;;;;;;;;26.62;35.33;100964.09;5016334;28;1120;-41
2022/09/24 00:22:09;;;;;;;;;;;;;;;26.51;35.14;100959.88;5015911;28;1973;-42
2022/09/24 00:27:18;;;;;;;;;;;;;;;26.50;35.43;100963.59;5003708;28;1002;-42
2022/09/24 00:29:44;;;;;;;;;;;;;;;26.42;35.54;100959.09;5015525;28;1129;-42
2022/09/24 00:32:10;;;;;;;;;;;;;;;26.56;35.16;100964.78;5015873;28;1160;-41
2022/09/24 00:34:35;;;;;;;;;;;;;;;26.61;35.08;100962.41;5016196;28;1084;-42
2022/09/24 00:37:00;;;;;;;;;;;;;;;26.50;35.25;100961.75;5015751;28;1187;-42
2022/09/24 00:39:26;;;;;;;;;;;;;;;26.46;35.28;100962.28;5016059;28;1107;-41
2022/09/24 00:41:51;;;;;;;;;;;;;;;26.31;35.63;100962.94;5015703;28;1973;-41
2022/09/24 00:44:34;;;;;;;;;;;;;;;26.29;35.85;100971.22;5015817;28;1179;-42
2022/09/24 00:47:00;;;;;;;;;;;;;;;26.34;35.68;100953.72;5015726;28;1096;-41
2022/09/24 00:49:25;;;;;;;;;;;;;;;26.38;35.72;100961.28;5015967;28;1100;-42
2022/09/24 00:51:50;;;;;;;;;;;;;;;26.28;35.47;100963.31;5016030;28;1111;-42
2022/09/24 00:54:20;;;;;;;;;;;;;;;26.40;35.54;100955.72;5000802;28;2387;-41
2022/09/24 00:56:45;;;;;;;;;;;;;;;26.33;35.78;100962.81;5022093;28;1121;-42
2022/09/24 00:59:11;;;;;;;;;;;;;;;26.36;35.48;100951.69;5023160;28;1120;-42
2022/09/24 01:01:36;;;;;;;;;;;;;;;26.26;35.92;100960.78;5019911;28;1956;-42
2022/09/24 01:04:01;;;;;;;;;;;;;;;26.28;35.99;100956.06;5019579;28;1183;-41
2022/09/24 01:06:27;;;;;;;;;;;;;;;26.28;35.86;100957.91;5014717;28;1128;-40
2022/09/24 01:08:52;;;;;;;;;;;;;;;26.29;35.83;100955.03;5009342;28;1116;-41
2022/09/24 01:11:21;;;;;;;;;;;;;;;26.27;36.04;100951.69;5019388;28;1159;-42
2022/09/24 01:13:54;;;;;;;;;;;;;;;26.19;36.11;100951.72;5019451;28;1497;-40
2022/09/24 01:16:19;;;;;;;;;;;;;;;26.13;36.28;100947.84;5004540;28;1239;-42
2022/09/24 01:19:08;;;;;;;;;;;;;;;26.23;36.26;100944.94;5019551;28;894;-42
2022/09/24 01:22:02;;;;;;;;;;;;;;;26.25;36.11;100952.84;4982097;28;1931;-42
2022/09/24 01:24:36;;;;;;;;;;;;;;;26.27;36.08;100949.00;4993677;28;2274;-42
2022/09/24 01:27:10;;;;;;;;;;;;;;;26.26;36.07;100951.84;5018228;28;1230;-40
2022/09/24 01:29:40;;;;;;;;;;;;;;;26.23;36.06;100955.72;5018697;28;1521;-42
2022/09/24 01:32:07;;;;;;;;;;;;;;;26.26;36.25;100944.59;5019012;28;1175;-42
2022/09/24 01:34:38;;;;;;;;;;;;;;;26.28;35.95;100956.06;5007924;28;1129;-41
2022/09/24 01:37:03;;;;;;;;;;;;;;;26.08;36.09;100960.97;5015765;28;1224;-42
2022/09/24 01:39:28;;;;;;;;;;;;;;;26.16;36.19;100949.31;5018884;28;1168;-42
2022/09/24 01:41:56;;;;;;;;;;;;;;;26.20;35.98;100960.63;5012338;28;1902;-42
2022/09/24 01:44:21;;;;;;;;;;;;;;;26.15;36.13;100955.75;5010911;28;1124;-41
2022/09/24 01:46:46;;;;;;;;;;;;;;;26.23;35.96;100961.13;5012435;28;1069;-41
2022/09/24 01:49:12;;;;;;;;;;;;;;;26.26;35.88;100951.84;5000037;28;1307;-41
2022/09/24 01:51:48;;;;;;;;;;;;;;;26.23;36.13;100958.44;5019087;28;1179;-42
2022/09/24 01:54:21;;;;;;;;;;;;;;;26.14;36.36;100952.19;5014533;28;2242;-42
2022/09/24 01:57:15;;;;;;;;;;;;;;;26.20;35.99;100956.06;5010418;28;1164;-42
2022/09/24 01:59:41;;;;;;;;;;;;;;;26.16;36.25;100955.56;4993721;28;1293;-42
2022/09/24 02:02:07;;;;;;;;;;;;;;;26.23;35.91;100957.56;5018124;28;1897;-42
2022/09/24 02:04:46;;;;;;;;;;;;;;;26.14;36.26;100949.50;5017877;28;1180;-41
2022/09/24 02:07:20;;;;;;;;;;;;;;;26.08;36.16;100946.66;5007677;28;983;-42
2022/09/24 02:09:46;;;;;;;;;;;;;;;26.13;36.16;100952.38;5015921;28;1148;-42
2022/09/24 02:12:16;;;;;;;;;;;;;;;26.08;36.37;100963.69;5018802;28;1135;-42
2022/09/24 02:14:47;;;;;;;;;;;;;;;26.10;36.67;100963.50;5018551;28;1092;-43
2022/09/24 02:17:13;;;;;;;;;;;;;;;26.09;36.43;100959.97;5017848;28;1032;-42
2022/09/24 02:19:38;;;;;;;;;;;;;;;26.13;36.48;100965.84;5018789;28;1190;-41
2022/09/24 02:22:04;;;;;;;;;;;;;;;26.12;36.36;100961.47;5005090;28;1898;-42
2022/09/24 02:24:31;;;;;;;;;;;;;;;26.05;36.53;100972.09;5011943;28;2376;-40
2022/09/24 02:26:56;;;;;;;;;;;;;;;26.16;36.28;100965.50;5015336;28;1195;-40
2022/09/24 02:29:22;;;;;;;;;;;;;;;26.11;36.43;100965.22;5017915;28;1288;-40
2022/09/24 02:31:47;;;;;;;;;;;;;;;26.06;36.46;100965.69;5016426;28;1234;-42
2022/09/24 02:34:20;;;;;;;;;;;;;;;26.08;36.30;100969.06;5008892;28;1556;-42
2022/09/24 02:39:49;;;;;;;;;;;;;;;26.05;36.54;100980.19;5017810;28;1147;-41
2022/09/24 02:42:14;;;;;;;;;;;;;;;26.06;36.57;100976.47;5017532;28;1969;-41
2022/09/24 02:44:39;;;;;;;;;;;;;;;26.05;36.35;100974.81;5007240;28;1104;-40
2022/09/24 02:47:05;;;;;;;;;;;;;;;26.16;36.35;100979.00;5014166;28;1115;-42
2022/09/24 02:49:30;;;;;;;;;;;;;;;26.01;36.43;100978.84;5012492;28;1136;-40
2022/09/24 02:51:56;;;;;;;;;;;;;;;26.06;36.39;100970.25;5017448;28;1181;-42
2022/09/24 02:54:21;;;;;;;;;;;;;;;26.03;36.32;100971.44;5016804;28;2320;-40
2022/09/24 02:56:47;;;;;;;;;;;;;;;26.00;36.70;100980.72;5017777;28;1095;-40
2022/09/24 02:59:12;;;;;;;;;;;;;;;26.13;36.22;100979.34;5017982;28;1258;-42
2022/09/24 03:01:37;;;;;;;;;;;;;;;26.02;36.29;100983.22;5017561;28;1961;-42
2022/09/24 03:04:03;;;;;;;;;;;;;;;26.09;36.46;100983.41;5017623;28;1151;-41
2022/09/24 03:06:29;;;;;;;;;;;;;;;26.08;36.55;100984.38;5016981;28;1108;-42
2022/09/24 03:08:54;;;;;;;;;;;;;;;26.08;36.04;100987.94;5017647;28;1104;-42
2022/09/24 03:11:22;;;;;;;;;;;;;;;26.13;36.30;100990.13;5017377;28;1214;-41
2022/09/24 03:13:48;;;;;;;;;;;;;;;26.09;36.27;100995.00;5017462;28;1088;-42
2022/09/24 03:16:13;;;;;;;;;;;;;;;26.19;36.28;100997.53;5016433;28;1206;-42
2022/09/24 03:18:39;;;;;;;;;;;;;;;26.17;36.28;101004.97;5017200;28;894;-42
2022/09/24 03:21:07;;;;;;;;;;;;;;;25.97;36.14;100988.28;5017283;28;1894;-42
2022/09/24 03:23:33;;;;;;;;;;;;;;;25.94;36.25;100997.56;5017376;28;1108;-40
2022/09/24 03:25:58;;;;;;;;;;;;;;;25.92;36.26;100997.72;5010288;28;2618;-41
2022/09/24 03:28:23;;;;;;;;;;;;;;;26.10;35.99;101001.25;5016819;28;1261;-41
2022/09/24 03:31:01;;;;;;;;;;;;;;;27.28;34.77;101002.63;5016576;28;865;-42
2022/09/24 03:33:27;;;;;;;;;;;;;;;32.20;26.45;101009.25;5016816;28;1077;-37
2022/09/24 03:35:59;;;;;;;;;;;;;;;32.35;26.03;101006.31;5016538;28;1144;-39
2022/09/24 03:38:24;;;;;;;;;;;;;;;31.28;27.71;101016.06;4999011;28;1238;-39
2022/09/24 03:40:49;;;;;;;;;;;;;;;32.15;26.70;101010.97;4996857;28;1911;-40
2022/09/24 03:43:15;;;;;;;;;;;;;;;29.38;23.56;101011.22;5010445;28;1251;-40
2022/09/24 03:45:40;;;;;;;;;;;;;;;27.65;25.64;101021.78;5016756;28;1112;-39
2022/09/24 03:48:05;;;;;;;;;;;;;;;26.83;26.08;101019.31;5003326;28;1061;-39
2022/09/24 03:50:31;;;;;;;;;;;;;;;26.46;26.88;101021.63;5008672;28;1179;-39
2022/09/24 03:52:56;;;;;;;;;;;;;;;26.26;26.38;101027.34;5015848;28;1160;-39
2022/09/24 03:55:21;;;;;;;;;;;;;;;26.08;29.12;101022.13;5016257;28;1911;-38
2022/09/24 03:57:46;;;;;;;;;;;;;;;25.01;29.46;101019.06;5016572;28;1179;-39
2022/09/24 04:00:12;;;;;;;;;;;;;;;24.51;28.69;101014.25;5016731;28;1973;-39
2022/09/24 04:02:39;;;;;;;;;;;;;;;23.94;29.08;101019.03;5016678;28;1152;-37
2022/09/24 04:05:05;;;;;;;;;;;;;;;23.70;29.18;101016.97;5016307;28;1127;-41
2022/09/24 04:07:30;;;;;;;;;;;;;;;23.44;29.09;101026.59;5016131;28;886;-40
2022/09/24 04:09:56;;;;;;;;;;;;;;;23.06;29.17;101020.44;5016157;28;1147;-39
2022/09/24 04:12:21;;;;;;;;;;;;;;;23.68;29.07;101035.91;5016291;28;1348;-41
2022/09/24 04:14:47;;;;;;;;;;;;;;;23.83;28.49;101030.00;5015768;28;1139;-40
2022/09/24 04:17:13;;;;;;;;;;;;;;;23.08;29.48;101038.09;5016392;28;1144;-45
2022/09/24 04:19:39;;;;;;;;;;;;;;;23.11;29.01;101045.84;5015791;28;888;-46
2022/09/24 04:22:04;;;;;;;;;;;;;;;23.06;29.20;101049.94;5015938;28;1894;-44
2022/09/24 04:24:29;;;;;;;;;;;;;;;22.99;29.45;101055.91;5009328;28;1915;-45
2022/09/24 04:26:55;;;;;;;;;;;;;;;22.97;29.17;101051.69;5013288;28;1097;-42
2022/09/24 04:29:20;;;;;;;;;;;;;;;22.80;29.67;101064.88;5016122;28;1057;-40
2022/09/24 04:31:45;;;;;;;;;;;;;;;22.86;29.76;101060.75;5016132;28;1104;-39
2022/09/24 04:34:11;;;;;;;;;;;;;;;22.56;30.22;101070.69;5015744;28;1119;-40
2022/09/24 04:36:36;;;;;;;;;;;;;;;22.81;29.78;101074.63;5015887;28;1128;-41
2022/09/24 04:39:02;;;;;;;;;;;;;;;22.75;29.92;101072.53;5016066;28;1171;-41
2022/09/24 04:41:27;;;;;;;;;;;;;;;22.75;29.94;101072.53;5016080;28;1898;-40
2022/09/24 04:43:52;;;;;;;;;;;;;;;22.53;30.42;101081.69;5015763;28;1136;-41
2022/09/24 04:46:18;;;;;;;;;;;;;;;22.00;30.90;101079.34;5016385;28;1178;-43
2022/09/24 04:48:43;;;;;;;;;;;;;;;21.74;31.55;101087.88;5016032;28;1176;-41
2022/09/24 04:51:09;;;;;;;;;;;;;;;21.81;31.28;101075.66;5015623;28;1163;-43
2022/09/24 04:53:36;;;;;;;;;;;;;;;21.38;32.06;101085.69;5016241;28;1187;-40
2022/09/24 04:56:01;;;;;;;;;;;;;;;21.24;32.36;101084.22;5011615;28;2594;-42
2022/09/24 04:58:27;;;;;;;;;;;;;;;21.51;32.38;101078.25;5011373;28;1437;-45
2022/09/24 05:00:52;;;;;;;;;;;;;;;21.55;32.11;101091.38;5009079;28;1898;-44
2022/09/24 05:03:20;;;;;;;;;;;;;;;21.68;31.73;101086.59;5006834;28;1354;-41
2022/09/24 05:05:45;;;;;;;;;;;;;;;21.83;31.64;101080.88;5012628;28;1237;-44
2022/09/24 05:08:11;;;;;;;;;;;;;;;21.77;31.88;101085.78;5011678;28;1195;-42
2022/09/24 05:10:36;;;;;;;;;;;;;;;21.59;31.98;101076.72;5015971;28;1116;-41
2022/09/24 05:13:01;;;;;;;;;;;;;;;21.82;31.89;101084.56;5015544;28;1111;-40
2022/09/24 05:15:27;;;;;;;;;;;;;;;21.66;31.95;101080.53;5002091;28;1053;-41
2022/09/24 05:17:52;;;;;;;;;;;;;;;21.95;31.58;101084.28;5012195;28;1159;-43
2022/09/24 05:20:17;;;;;;;;;;;;;;;22.24;31.65;101084.28;5014069;28;1894;-41
2022/09/24 05:22:43;;;;;;;;;;;;;;;22.34;31.40;101078.06;5015771;28;1190;-43
2022/09/24 05:25:09;;;;;;;;;;;;;;;22.57;31.47;101089.31;5003998;28;2308;-42
2022/09/24 05:27:35;;;;;;;;;;;;;;;22.50;30.97;101082.84;5009114;28;1334;-45
2022/09/24 05:30:00;;;;;;;;;;;;;;;22.66;31.15;101084.09;5010052;28;1160;-43
2022/09/24 05:32:26;;;;;;;;;;;;;;;22.51;32.07;101077.34;5013280;28;1014;-44
2022/09/24 05:34:52;;;;;;;;;;;;;;;22.49;31.75;101079.31;5015746;28;1271;-42
2022/09/24 05:37:17;;;;;;;;;;;;;;;22.47;31.90;101088.50;5012461;28;1223;-41
2022/09/24 05:39:43;;;;;;;;;;;;;;;22.55;32.12;101090.44;5012135;28;1124;-44
2022/09/24 05:42:09;;;;;;;;;;;;;;;22.74;31.78;101090.44;5015406;28;1906;-41
2022/09/24 05:44:35;;;;;;;;;;;;;;;22.85;31.67;101096.63;5014035;28;1040;-42
2022/09/24 05:47:00;;;;;;;;;;;;;;;22.80;31.58;101094.38;5018504;28;1112;-41
2022/09/24 05:49:25;;;;;;;;;;;;;;;22.70;31.89;101104.28;5018594;28;1092;-43
2022/09/24 05:51:51;;;;;;;;;;;;;;;22.69;32.00;101103.44;5019553;28;1099;-42
2022/09/24 05:54:16;;;;;;;;;;;;;;;22.70;32.55;101115.00;5015176;28;1842;-43
2022/09/24 05:56:42;;;;;;;;;;;;;;;22.60;32.58;101115.88;5018711;28;1001;-41
2022/09/24 05:59:07;;;;;;;;;;;;;;;22.64;32.56;101113.75;5018363;28;1144;-41
2022/09/24 06:01:32;;;;;;;;;;;;;;;22.74;32.48;101117.25;5018303;28;1957;-42
2022/09/24 06:03:58;;;;;;;;;;;;;;;22.97;31.63;101126.81;5018755;28;1206;-42
2022/09/24 06:06:23;;;;;;;;;;;;;;;22.99;31.95;101124.81;5018389;28;973;-41
2022/09/24 06:08:49;;;;;;;;;;;;;;;22.84;32.65;101127.13;5018475;28;957;-44
2022/09/24 06:11:14;;;;;;;;;;;;;;;22.91;33.18;101130.91;5016176;28;1234;-44
2022/09/24 06:13:39;;;;;;;;;;;;;;;22.80;33.83;101131.94;5019028;28;1060;-42
2022/09/24 06:16:06;;;;;;;;;;;;;;;22.74;32.80;101135.19;5018317;28;1139;-39
2022/09/24 06:18:35;;;;;;;;;;;;;;;22.58;32.46;101147.31;5017912;28;1116;-41
2022/09/24 06:21:02;;;;;;;;;;;;;;;22.53;32.58;101138.00;5018030;28;1894;-42
2022/09/24 06:23:28;;;;;;;;;;;;;;;22.49;32.13;101134.75;5012793;28;1260;-40
2022/09/24 06:25:53;;;;;;;;;;;;;;;22.21;32.43;101143.50;5013504;28;2623;-40
2022/09/24 06:28:18;;;;;;;;;;;;;;;21.91;32.94;101137.28;5016716;28;1289;-41
2022/09/24 06:30:43;;;;;;;;;;;;;;;21.99;32.16;101144.59;5004220;28;1175;-40
2022/09/24 06:33:10;;;;;;;;;;;;;;;22.57;31.27;101145.63;5016564;28;1017;-40
2022/09/24 06:35:41;;;;;;;;;;;;;;;22.89;30.97;101143.63;5008516;28;1143;-40
2022/09/24 06:38:07;;;;;;;;;;;;;;;22.91;30.71;101146.16;5015925;28;1121;-39
2022/09/24 06:40:33;;;;;;;;;;;;;;;23.11;30.64;101153.19;5012319;28;1998;-40
2022/09/24 06:42:58;;;;;;;;;;;;;;;23.25;30.35;101140.28;5011369;28;1219;-41
2022/09/24 06:45:24;;;;;;;;;;;;;;;23.34;30.13;101147.44;5017440;28;1012;-42
2022/09/24 06:47:55;;;;;;;;;;;;;;;23.41;29.94;101147.72;5017401;28;1230;-40
2022/09/24 06:50:21;;;;;;;;;;;;;;;23.50;29.65;101151.38;5017531;28;1139;-41
2022/09/24 06:52:46;;;;;;;;;;;;;;;23.63;29.54;101139.41;5017984;28;1203;-40
2022/09/24 06:55:12;;;;;;;;;;;;;;;23.64;29.33;101143.81;5013554;28;2470;-38
2022/09/24 06:57:37;;;;;;;;;;;;;;;23.71;29.17;101147.56;5017261;28;1148;-37
2022/09/24 07:00:03;;;;;;;;;;;;;;;23.79;29.12;101161.09;5017193;28;1217;-38
2022/09/24 07:02:29;;;;;;;;;;;;;;;23.93;28.89;101156.22;5016245;28;1898;-38
2022/09/24 07:04:55;;;;;;;;;;;;;;;23.94;28.63;101152.53;5013496;28;1205;-42
2022/09/24 07:07:30;;;;;;;;;;;;;;;23.98;28.34;101151.22;4998627;28;1046;-39
2022/09/24 07:09:56;;;;;;;;;;;;;;;23.61;28.54;101155.69;5017195;28;1140;-40
2022/09/24 07:12:21;;;;;;;;;;;;;;;22.79;29.16;101159.72;5017176;28;1143;-38
2022/09/24 07:14:47;;;;;;;;;;;;;;;22.57;30.07;101161.69;5017726;28;1088;-37
2022/09/24 07:17:12;;;;;;;;;;;;;;;22.35;29.80;101161.03;5017307;28;1251;-38
2022/09/24 07:19:37;;;;;;;;;;;;;;;22.37;30.19;101153.66;5017075;28;1120;-38
2022/09/24 07:22:03;;;;;;;;;;;;;;;22.40;29.97;101152.56;5017186;28;1906;-39
2022/09/24 07:24:28;;;;;;;;;;;;;;;23.00;29.35;101162.22;5010827;28;1835;-43
2022/09/24 07:26:54;;;;;;;;;;;;;;;23.56;28.64;101150.75;5012072;28;1415;-43
2022/09/24 07:29:19;;;;;;;;;;;;;;;23.91;28.28;101153.69;5016900;28;1119;-41
2022/09/24 07:31:45;;;;;;;;;;;;;;;24.03;28.03;101148.06;5015155;28;1135;-41
2022/09/24 07:34:10;;;;;;;;;;;;;;;24.18;27.86;101151.13;5015834;28;1104;-43
2022/09/24 07:36:35;;;;;;;;;;;;;;;24.36;27.81;101139.53;5013390;28;1128;-42
2022/09/24 07:39:01;;;;;;;;;;;;;;;24.44;27.52;101134.22;5012272;28;1282;-42
2022/09/24 07:41:26;;;;;;;;;;;;;;;24.43;27.47;101135.22;5009935;28;1899;-40
2022/09/24 07:43:53;;;;;;;;;;;;;;;24.38;27.49;101143.75;5015136;28;1005;-40
2022/09/24 07:46:18;;;;;;;;;;;;;;;24.56;27.20;101146.41;5009858;28;1089;-42
2022/09/24 07:48:44;;;;;;;;;;;;;;;24.65;27.02;101147.31;5016182;28;1306;-43
2022/09/24 07:51:10;;;;;;;;;;;;;;;24.91;27.08;101145.66;5016705;28;994;-43
2022/09/24 07:53:35;;;;;;;;;;;;;;;24.88;26.97;101152.19;5016622;28;1338;-40
2022/09/24 07:56:00;;;;;;;;;;;;;;;24.89;26.85;101153.03;5013226;28;2687;-43
2022/09/24 07:58:26;;;;;;;;;;;;;;;25.05;26.54;101149.63;5016366;28;1124;-42
2022/09/24 08:00:51;;;;;;;;;;;;;;;25.23;26.46;101157.63;5016571;28;1957;-43
2022/09/24 08:03:16;;;;;;;;;;;;;;;25.12;26.30;101156.06;5016093;28;1243;-42
2022/09/24 08:05:45;;;;;;;;;;;;;;;25.38;25.93;101149.81;5016416;28;1187;-43
2022/09/24 08:08:10;;;;;;;;;;;;;;;25.42;25.91;101153.84;5015101;28;1414;-41
2022/09/24 08:10:37;;;;;;;;;;;;;;;25.45;26.12;101147.31;5012952;28;1131;-43
2022/09/24 08:13:02;;;;;;;;;;;;;;;25.49;25.89;101148.66;5016020;28;1124;-43
2022/09/24 08:15:27;;;;;;;;;;;;;;;25.54;25.96;101143.63;5016129;28;1484;-40
2022/09/24 08:17:52;;;;;;;;;;;;;;;25.50;25.89;101150.38;5016267;28;1128;-41
2022/09/24 08:20:18;;;;;;;;;;;;;;;25.83;25.73;101136.16;5016039;28;1902;-41
2022/09/24 08:22:43;;;;;;;;;;;;;;;25.87;25.52;101145.63;5015919;28;1292;-44
2022/09/24 08:25:08;;;;;;;;;;;;;;;26.05;25.31;101141.94;5012406;28;2615;-42
2022/09/24 08:27:35;;;;;;;;;;;;;;;26.00;24.90;101147.84;5015005;28;1278;-40
2022/09/24 08:30:01;;;;;;;;;;;;;;;26.18;24.77;101146.84;5016133;28;1108;-39
2022/09/24 08:32:28;;;;;;;;;;;;;;;26.32;24.75;101145.34;5009528;28;1252;-39
2022/09/24 08:34:54;;;;;;;;;;;;;;;26.49;24.58;101130.00;5013585;28;1532;-39
2022/09/24 08:37:20;;;;;;;;;;;;;;;26.03;27.11;101127.78;5016208;28;1116;-38
2022/09/24 08:39:45;;;;;;;;;;;;;;;25.95;27.11;101134.00;5016461;28;1103;-39
2022/09/24 08:42:22;;;;;;;;;;;;;;;26.01;27.56;101130.66;5010104;28;1899;-39
2022/09/24 08:47:47;;;;;;;;;;;;;;;25.73;28.58;101128.22;5005918;28;1067;-40
2022/09/24 08:50:19;;;;;;;;;;;;;;;25.73;28.33;101124.69;5014259;28;1089;-40
2022/09/24 08:53:05;;;;;;;;;;;;;;;25.84;27.79;101124.38;5000659;28;1172;-39
2022/09/24 08:55:41;;;;;;;;;;;;;;;25.81;28.37;101124.69;5011652;28;2667;-39
2022/09/24 08:58:09;;;;;;;;;;;;;;;25.96;27.88;101129.47;5012952;28;1196;-39
2022/09/24 09:00:58;;;;;;;;;;;;;;;25.85;27.43;101130.63;5015727;28;1895;-40
2022/09/24 09:03:33;;;;;;;;;;;;;;;25.91;27.92;101119.16;4982589;28;1116;-39
2022/09/24 09:06:08;;;;;;;;;;;;;;;25.84;28.06;101118.97;5001732;28;1140;-39
2022/09/24 09:08:36;;;;;;;;;;;;;;;25.77;28.11;101121.53;5002696;28;1088;-39
2022/09/24 09:11:02;;;;;;;;;;;;;;;25.84;28.27;101121.69;5028647;28;1139;-39
2022/09/24 09:13:47;;;;;;;;;;;;;;;25.90;27.79;101126.44;5016176;28;1173;-39
2022/09/24 09:16:13;;;;;;;;;;;;;;;25.99;28.06;101132.66;5014881;28;1248;-39
2022/09/24 09:18:38;;;;;;;;;;;;;;;26.12;27.41;101118.72;5015926;28;1140;-39
2022/09/24 09:21:11;;;;;;;;;;;;;;;26.14;27.53;101127.44;5019264;28;1967;-38
2022/09/24 09:23:38;;;;;;;;;;;;;;;26.09;27.04;101116.31;5019756;28;1175;-39
2022/09/24 09:26:05;;;;;;;;;;;;;;;26.01;27.00;101122.56;5007143;28;2665;-39
2022/09/24 09:28:31;;;;;;;;;;;;;;;26.22;26.87;101106.91;5015380;28;1220;-39
2022/09/24 09:31:02;;;;;;;;;;;;;;;26.34;26.37;101110.16;5009351;28;1096;-38
2022/09/24 09:33:34;;;;;;;;;;;;;;;26.46;25.56;101113.34;5014819;28;1140;-38
2022/09/24 09:36:18;;;;;;;;;;;;;;;26.56;25.24;101119.38;5016871;28;1112;-39
2022/09/24 09:38:50;;;;;;;;;;;;;;;26.51;25.41;101111.81;5017784;28;1100;-39
2022/09/24 09:41:18;;;;;;;;;;;;;;;26.33;25.62;101119.22;5003813;28;1910;-39
2022/09/24 09:43:43;;;;;;;;;;;;;;;26.68;24.30;101111.78;5012497;28;1259;-39
2022/09/24 09:46:14;;;;;;;;;;;;;;;26.62;23.84;101107.94;5013170;28;1224;-39
2022/09/24 09:48:44;;;;;;;;;;;;;;;26.58;23.67;101101.19;4999308;28;1298;-38
2022/09/24 09:51:12;;;;;;;;;;;;;;;26.32;24.15;101104.88;5016304;28;1251;-38
2022/09/24 09:53:38;;;;;;;;;;;;;;;26.46;24.32;101099.88;5019629;28;1219;-37
2022/09/24 09:56:05;;;;;;;;;;;;;;;26.66;23.44;101103.00;5009263;28;2409;-37
2022/09/24 09:58:31;;;;;;;;;;;;;;;26.79;23.19;101107.91;5001873;28;1204;-38
2022/09/24 10:01:06;;;;;;;;;;;;;;;26.81;22.79;101096.94;4997355;28;1891;-38
2022/09/24 10:03:32;;;;;;;;;;;;;;;26.82;23.42;101106.69;5006007;28;1128;-38
2022/09/24 10:05:58;;;;;;;;;;;;;;;26.76;23.26;101097.44;5012196;28;1108;-38
2022/09/24 10:08:23;;;;;;;;;;;;;;;26.62;23.45;101093.59;5015046;28;1314;-37
2022/09/24 10:10:54;;;;;;;;;;;;;;;26.51;23.30;101100.16;5014630;28;1008;-37
2022/09/24 10:13:19;;;;;;;;;;;;;;;26.64;23.18;101096.97;5005065;28;1259;-37
2022/09/24 10:15:48;;;;;;;;;;;;;;;26.48;23.74;101104.06;5018223;28;1108;-38
2022/09/24 10:18:14;;;;;;;;;;;;;;;26.63;23.67;101096.13;5005402;28;1188;-38
2022/09/24 10:20:39;;;;;;;;;;;;;;;26.67;24.00;101093.06;5010976;28;1894;-37
2022/09/24 10:23:08;;;;;;;;;;;;;;;26.65;24.03;101090.53;5015556;28;1100;-37
2022/09/24 10:25:36;;;;;;;;;;;;;;;26.36;24.19;101094.66;5012091;28;1797;-37
2022/09/24 10:30:59;;;;;;;;;;;;;;;26.28;24.16;101096.28;5013054;28;1122;-38
2022/09/24 10:33:25;;;;;;;;;;;;;;;26.36;23.55;101100.88;5017435;28;1171;-38
2022/09/24 10:35:50;;;;;;;;;;;;;;;26.51;24.06;101092.94;5016411;28;1274;-37
2022/09/24 10:38:17;;;;;;;;;;;;;;;26.53;23.52;101099.00;5012402;28;1466;-37
2022/09/24 10:40:42;;;;;;;;;;;;;;;26.80;22.19;101104.19;5010450;28;1894;-37
2022/09/24 10:43:17;;;;;;;;;;;;;;;26.95;23.30;101093.50;5004204;28;1049;-37
2022/09/24 10:45:52;;;;;;;;;;;;;;;26.96;23.23;101100.59;5014141;28;1552;-37
2022/09/24 10:48:23;;;;;;;;;;;;;;;26.90;22.62;101093.19;5010915;28;1156;-37
2022/09/24 10:50:48;;;;;;;;;;;;;;;26.77;22.41;101093.72;5012184;28;1156;-38
2022/09/24 10:53:37;;;;;;;;;;;;;;;26.74;23.09;101096.78;5013088;28;1243;-38
2022/09/24 10:56:05;;;;;;;;;;;;;;;26.56;23.20;101092.41;4996078;28;2517;-38
2022/09/24 10:58:37;;;;;;;;;;;;;;;26.60;23.44;101087.53;5017193;28;1202;-38
2022/09/24 11:01:02;;;;;;;;;;;;;;;26.87;23.35;101094.38;5007857;28;1898;-38
2022/09/24 11:03:49;;;;;;;;;;;;;;;27.10;22.51;101093.66;5012272;28;1104;-38
2022/09/24 11:06:17;;;;;;;;;;;;;;;26.87;22.43;101085.44;5017186;28;1159;-38
2022/09/24 11:08:46;;;;;;;;;;;;;;;26.71;23.17;101080.94;5017585;28;1148;-38
2022/09/24 11:11:20;;;;;;;;;;;;;;;27.00;21.51;101095.69;5017201;28;942;-38
2022/09/24 11:14:04;;;;;;;;;;;;;;;27.21;21.66;101078.91;5002793;28;1116;-38
2022/09/24 11:16:30;;;;;;;;;;;;;;;27.12;21.13;101080.00;5016761;28;1148;-38
2022/09/24 11:18:56;;;;;;;;;;;;;;;26.83;22.17;101071.44;5017043;28;1148;-38
2022/09/24 11:21:28;;;;;;;;;;;;;;;26.62;22.94;101067.47;5010349;28;1898;-38
2022/09/24 11:23:56;;;;;;;;;;;;;;;26.83;22.58;101063.34;5016558;28;2514;-39
2022/09/24 11:26:40;;;;;;;;;;;;;;;26.94;22.31;101066.69;5016984;28;1210;-39
2022/09/24 11:29:09;;;;;;;;;;;;;;;26.76;22.76;101059.66;5016997;28;1294;-38
2022/09/24 11:31:43;;;;;;;;;;;;;;;26.65;23.03;101063.56;5017050;28;1159;-38
2022/09/24 11:34:41;;;;;;;;;;;;;;;26.52;23.50;101064.94;5008560;28;1120;-38
2022/09/24 11:37:07;;;;;;;;;;;;;;;26.44;22.17;101056.88;4964907;28;1182;-38
2022/09/24 11:39:44;;;;;;;;;;;;;;;26.39;22.49;101056.53;5014647;28;1133;-38
2022/09/24 11:42:21;;;;;;;;;;;;;;;26.19;22.17;101056.00;5017015;28;1887;-38
2022/09/24 11:44:51;;;;;;;;;;;;;;;26.27;22.86;101048.78;5016891;28;1168;-39
2022/09/24 11:47:24;;;;;;;;;;;;;;;26.33;22.52;101051.81;5016129;28;930;-38
2022/09/24 11:49:54;;;;;;;;;;;;;;;26.42;23.01;101053.50;5003189;28;1207;-38
2022/09/24 11:52:25;;;;;;;;;;;;;;;26.31;21.50;101048.44;5009873;28;1092;-38
2022/09/24 11:55:02;;;;;;;;;;;;;;;26.34;21.48;101046.25;5007885;28;2264;-38
2022/09/24 11:57:29;;;;;;;;;;;;;;;26.43;22.44;101047.06;5007948;28;1054;-38
2022/09/24 12:00:00;;;;;;;;;;;;;;;26.61;22.25;101054.97;5016570;28;1136;-38
2022/09/24 12:02:46;;;;;;;;;;;;;;;26.99;22.06;101048.94;5000874;28;1902;-39
2022/09/24 12:05:13;;;;;;;;;;;;;;;26.82;22.28;101056.28;5010260;28;1169;-40
2022/09/24 12:07:53;;;;;;;;;;;;;;;26.71;22.04;101052.06;5005528;28;1124;-38
2022/09/24 12:10:28;;;;;;;;;;;;;;;26.72;21.39;101052.94;5013696;28;1169;-39
2022/09/24 12:12:56;;;;;;;;;;;;;;;26.46;21.01;101052.13;5016248;28;1178;-38
2022/09/24 12:15:23;;;;;;;;;;;;;;;26.51;22.28;101047.06;4997026;28;1148;-38
2022/09/24 12:17:51;;;;;;;;;;;;;;;26.50;22.39;101047.25;5007060;28;1152;-38
2022/09/24 12:20:19;;;;;;;;;;;;;;;26.56;22.70;101043.03;5016174;28;1203;-39
2022/09/24 12:22:45;;;;;;;;;;;;;;;26.34;22.09;101045.41;5015859;28;1946;-39
2022/09/24 12:25:11;;;;;;;;;;;;;;;26.49;22.64;101053.66;5011967;28;2526;-38
2022/09/24 12:27:36;;;;;;;;;;;;;;;26.68;22.37;101051.56;5015808;28;1183;-40
2022/09/24 12:32:55;;;;;;;;;;;;;;;26.90;22.49;101040.06;5016040;28;1187;-39
2022/09/24 12:35:35;;;;;;;;;;;;;;;26.73;22.32;101047.34;5013022;28;1318;-38
2022/09/24 12:38:21;;;;;;;;;;;;;;;26.86;22.39;101063.00;5011388;28;990;-39
2022/09/24 12:41:04;;;;;;;;;;;;;;;27.01;21.98;101043.34;4965890;28;1902;-38
2022/09/24 12:43:32;;;;;;;;;;;;;;;27.24;21.22;101051.56;5014853;28;1093;-38
2022/09/24 12:45:59;;;;;;;;;;;;;;;27.23;20.60;101046.34;5015589;28;1115;-39
2022/09/24 12:48:24;;;;;;;;;;;;;;;27.13;21.31;101051.94;5014891;28;1069;-38
2022/09/24 12:50:54;;;;;;;;;;;;;;;27.05;20.63;101060.09;5015355;28;1191;-38
2022/09/24 12:53:23;;;;;;;;;;;;;;;27.01;20.21;101057.75;5014974;28;1116;-38
2022/09/24 12:55:48;;;;;;;;;;;;;;;26.93;19.53;101056.88;5015495;28;2505;-38
2022/09/24 12:58:28;;;;;;;;;;;;;;;26.99;19.89;101051.63;5018617;28;1144;-38
2022/09/24 13:01:04;;;;;;;;;;;;;;;26.88;21.03;101044.78;5019457;28;1888;-38
2022/09/24 13:03:32;;;;;;;;;;;;;;;26.91;20.95;101054.38;5007053;28;1077;-38
2022/09/24 13:05:59;;;;;;;;;;;;;;;26.82;21.72;101050.03;5019934;28;1313;-39